Time;durP1;ratioP1;P1;durP2;ratioP2;P2;SDS_P1;SDS_P2;PMS_P1;PMS_P2;Temp;Humidity;BMP_temperature;BMP_pressure;BME280_temperature;BME280_humidity;BME280_pressure;Samples;Min_cycle;Max_cycle;Signal;HPM_P1;HPM_P2
2022/09/07 00:00:26;;;;;;;6.50;2.88;;;19.60;99.90;;;;;;5073465;28;20256;-58
2022/09/07 00:02:54;;;;;;;7.68;2.97;;;19.70;99.90;;;;;;5073539;28;20212;-57
2022/09/07 00:05:21;;;;;;;10.05;2.90;;;19.70;99.90;;;;;;5072865;28;20205;-58
2022/09/07 00:07:48;;;;;;;4.65;2.63;;;19.70;99.90;;;;;;5047836;28;20202;-58
2022/09/07 00:10:15;;;;;;;8.07;3.22;;;19.70;99.90;;;;;;5053039;28;20228;-60
2022/09/07 00:12:42;;;;;;;3.95;2.90;;;19.60;99.90;;;;;;5053765;28;20210;-59
2022/09/07 00:15:11;;;;;;;7.15;3.03;;;19.70;99.90;;;;;;5053927;28;20551;-59
2022/09/07 00:17:39;;;;;;;4.50;2.60;;;19.50;99.90;;;;;;5053899;28;20233;-58
2022/09/07 00:20:09;;;;;;;4.32;2.90;;;19.50;99.90;;;;;;5052855;28;20233;-58
2022/09/07 00:22:36;;;;;;;5.65;2.75;;;19.50;99.90;;;;;;5052895;28;20208;-57
2022/09/07 00:25:03;;;;;;;6.22;2.90;;;19.40;99.90;;;;;;5051808;28;20202;-57
2022/09/07 00:27:30;;;;;;;5.03;3.00;;;19.40;99.90;;;;;;5051373;28;20684;-60
2022/09/07 00:29:56;;;;;;;6.75;2.65;;;19.40;99.90;;;;;;5052110;28;20229;-59
2022/09/07 00:32:23;;;;;;;6.68;2.50;;;19.50;99.90;;;;;;5051682;28;20206;-59
2022/09/07 00:34:50;;;;;;;3.60;2.75;;;19.50;99.90;;;;;;5052017;28;20220;-58
2022/09/07 00:37:18;;;;;;;4.47;2.47;;;19.60;99.90;;;;;;5050407;28;20478;-59
2022/09/07 00:39:45;;;;;;;4.43;2.70;;;19.70;99.90;;;;;;5051836;28;20234;-56
2022/09/07 00:42:12;;;;;;;4.60;2.42;;;19.80;99.90;;;;;;5052091;28;20719;-57
2022/09/07 00:45:00;;;;;;;5.45;2.40;;;19.70;99.90;;;;;;5052442;28;20220;-57
2022/09/07 00:47:32;;;;;;;6.20;2.38;;;19.70;99.90;;;;;;5052313;28;20205;-58
2022/09/07 00:50:02;;;;;;;5.03;2.40;;;19.60;99.90;;;;;;5050297;28;20237;-65
2022/09/07 00:52:32;;;;;;;5.93;2.45;;;19.50;99.90;;;;;;5052057;28;20236;-57
2022/09/07 00:55:02;;;;;;;5.55;2.38;;;19.50;99.90;;;;;;5052852;28;20216;-58
2022/09/07 00:57:30;;;;;;;6.35;2.47;;;19.50;99.90;;;;;;5052518;28;20279;-57
2022/09/07 00:59:58;;;;;;;6.68;2.50;;;19.50;99.90;;;;;;5052379;28;20311;-58
2022/09/07 01:02:25;;;;;;;6.15;2.40;;;19.50;99.90;;;;;;5052345;28;20214;-58
2022/09/07 01:04:58;;;;;;;5.88;2.75;;;19.60;99.90;;;;;;5052326;28;20201;-57
2022/09/07 01:07:24;;;;;;;4.00;2.40;;;19.60;99.90;;;;;;5052577;28;20563;-59
2022/09/07 01:09:54;;;;;;;3.95;2.42;;;19.70;99.90;;;;;;5052785;28;20259;-57
2022/09/07 01:12:21;;;;;;;5.80;2.95;;;19.70;99.90;;;;;;5052300;28;20205;-58
2022/09/07 01:14:51;;;;;;;3.42;2.53;;;19.70;99.90;;;;;;5052418;28;20263;-57
2022/09/07 01:17:25;;;;;;;8.88;3.42;;;19.70;99.90;;;;;;5052279;28;20764;-57
2022/09/07 01:20:32;;;;;;;3.88;2.60;;;19.70;99.90;;;;;;5052268;28;20608;-57
2022/09/07 01:23:32;;;;;;;3.83;2.47;;;19.70;99.90;;;;;;5052213;28;20209;-57
2022/09/07 01:26:19;;;;;;;2.97;2.45;;;19.70;99.90;;;;;;5052080;28;20201;-57
2022/09/07 01:28:49;;;;;;;5.55;2.35;;;19.60;99.90;;;;;;5052481;28;20319;-58
2022/09/07 01:31:24;;;;;;;5.80;2.50;;;19.60;99.90;;;;;;5052132;28;20229;-57
2022/09/07 01:34:00;;;;;;;4.40;2.67;;;19.50;99.90;;;;;;5052025;28;20610;-58
2022/09/07 01:36:35;;;;;;;4.63;2.80;;;19.40;99.90;;;;;;5052318;28;20232;-58
2022/09/07 01:39:03;;;;;;;4.80;2.83;;;19.40;99.90;;;;;;5052249;28;20232;-58
2022/09/07 01:41:37;;;;;;;5.95;2.70;;;19.30;99.90;;;;;;5052021;28;20255;-57
2022/09/07 01:44:11;;;;;;;5.47;2.60;;;19.30;99.90;;;;;;5052185;28;20209;-57
2022/09/07 01:46:43;;;;;;;6.00;2.70;;;19.40;99.90;;;;;;5052082;28;20206;-58
2022/09/07 01:49:13;;;;;;;4.28;2.35;;;19.50;99.90;;;;;;5052227;28;20708;-57
2022/09/07 01:51:43;;;;;;;4.38;2.20;;;19.60;99.90;;;;;;5051762;28;20225;-57
2022/09/07 01:54:16;;;;;;;5.40;2.58;;;19.60;99.90;;;;;;5051897;28;20202;-58
2022/09/07 01:56:46;;;;;;;5.28;2.38;;;19.60;99.90;;;;;;5051790;28;20206;-57
2022/09/07 01:59:19;;;;;;;6.68;2.47;;;19.50;99.90;;;;;;5051623;28;20222;-57
2022/09/07 02:01:51;;;;;;;7.80;2.80;;;19.70;99.90;;;;;;5052086;28;20232;-59
2022/09/07 02:04:20;;;;;;;5.90;2.92;;;19.70;99.90;;;;;;5052180;28;20206;-57
2022/09/07 02:06:49;;;;;;;6.43;2.78;;;19.90;99.90;;;;;;5052198;28;20595;-56
2022/09/07 02:09:22;;;;;;;6.30;2.55;;;20.10;99.90;;;;;;5051882;28;20202;-59
2022/09/07 02:11:50;;;;;;;4.47;2.50;;;20.20;99.90;;;;;;5051632;28;20224;-58
2022/09/07 02:14:22;;;;;;;4.45;2.70;;;20.20;99.90;;;;;;5052053;28;20212;-56
2022/09/07 02:16:56;;;;;;;7.63;3.03;;;20.20;99.90;;;;;;5052112;28;20222;-56
2022/09/07 02:19:26;;;;;;;5.32;2.05;;;20.30;99.90;;;;;;5051528;28;20221;-57
2022/09/07 02:21:59;;;;;;;6.20;2.50;;;20.30;99.90;;;;;;5051552;28;20582;-57
2022/09/07 02:24:30;;;;;;;6.72;2.60;;;20.40;99.90;;;;;;5051813;28;20214;-57
2022/09/07 02:26:59;;;;;;;4.68;2.97;;;20.40;99.90;;;;;;5051600;28;20205;-57
2022/09/07 02:29:27;;;;;;;6.07;3.00;;;20.30;99.90;;;;;;5051617;28;20202;-57
2022/09/07 02:31:54;;;;;;;3.15;2.63;;;20.30;99.90;;;;;;5051647;28;20221;-57
2022/09/07 02:34:21;;;;;;;5.65;2.92;;;20.30;99.90;;;;;;5051484;28;20209;-57
2022/09/07 02:36:49;;;;;;;6.10;2.85;;;20.30;99.90;;;;;;5051540;28;20213;-57
2022/09/07 02:39:17;;;;;;;6.97;3.20;;;20.20;99.90;;;;;;5051784;28;20225;-56
2022/09/07 02:41:45;;;;;;;7.90;2.70;;;20.20;99.90;;;;;;5051301;28;20736;-57
2022/09/07 02:44:16;;;;;;;4.50;2.47;;;20.20;99.90;;;;;;5051516;28;20241;-57
2022/09/07 02:47:00;;;;;;;4.18;2.30;;;20.20;99.90;;;;;;5053873;28;20201;-57
2022/09/07 02:49:43;;;;;;;3.22;2.10;;;20.10;99.90;;;;;;5055295;28;20465;-57
2022/09/07 02:52:19;;;;;;;4.78;2.67;;;20.10;99.90;;;;;;5054897;28;20216;-57
2022/09/07 02:54:58;;;;;;;4.10;2.67;;;20.10;99.90;;;;;;5054985;28;20216;-57
2022/09/07 02:57:34;;;;;;;12.27;9.00;;;20.00;99.90;;;;;;5054853;28;20582;-59
2022/09/07 03:00:07;;;;;;;5.90;3.72;;;20.00;99.90;;;;;;5055035;28;20229;-57
2022/09/07 03:02:44;;;;;;;5.45;4.03;;;19.90;99.90;;;;;;5055301;28;20205;-57
2022/09/07 03:05:18;;;;;;;3.80;2.30;;;19.90;99.90;;;;;;5056868;28;20216;-57
2022/09/07 03:07:49;;;;;;;3.97;2.60;;;19.80;99.90;;;;;;5055988;28;20215;-57
2022/09/07 03:10:17;;;;;;;5.10;2.47;;;19.80;99.90;;;;;;5054885;28;20235;-57
2022/09/07 03:12:46;;;;;;;5.65;3.20;;;19.70;99.90;;;;;;5054646;28;20206;-58
2022/09/07 03:15:14;;;;;;;4.00;3.08;;;19.70;99.90;;;;;;5054678;28;20297;-57
2022/09/07 03:17:44;;;;;;;5.05;3.17;;;19.70;99.90;;;;;;5055024;28;20209;-57
2022/09/07 03:20:11;;;;;;;10.07;5.97;;;19.60;99.90;;;;;;5054071;28;20229;-57
2022/09/07 03:22:38;;;;;;;5.65;3.10;;;19.70;99.90;;;;;;5053982;28;20677;-57
2022/09/07 03:25:06;;;;;;;5.85;3.70;;;19.60;99.90;;;;;;5054501;28;20210;-57
2022/09/07 03:27:33;;;;;;;6.43;3.67;;;19.50;99.90;;;;;;5054505;28;20216;-57
2022/09/07 03:30:00;;;;;;;4.85;3.30;;;19.50;99.90;;;;;;5054248;28;20226;-57
2022/09/07 03:32:31;;;;;;;4.80;2.90;;;19.50;99.90;;;;;;5054386;28;20221;-57
2022/09/07 03:35:00;;;;;;;11.52;4.63;;;19.50;99.90;;;;;;5054028;28;20712;-57
2022/09/07 03:37:27;;;;;;;5.30;3.50;;;19.50;99.90;;;;;;5053919;28;20264;-56
2022/09/07 03:39:54;;;;;;;10.15;3.40;;;19.50;99.90;;;;;;5053781;28;20229;-58
2022/09/07 03:42:21;;;;;;;5.20;3.40;;;19.50;99.90;;;;;;5053830;28;20621;-57
2022/09/07 03:44:48;;;;;;;4.55;3.10;;;19.40;99.90;;;;;;5053845;28;20304;-58
2022/09/07 03:47:15;;;;;;;4.82;3.20;;;19.40;99.90;;;;;;5053856;28;20558;-57
2022/09/07 03:49:42;;;;;;;4.68;3.05;;;19.40;99.90;;;;;;5054073;28;20236;-57
2022/09/07 03:52:10;;;;;;;5.75;3.60;;;19.40;99.90;;;;;;5053753;28;20205;-57
2022/09/07 03:54:37;;;;;;;7.30;3.40;;;19.50;99.90;;;;;;5053998;28;20214;-57
2022/09/07 03:57:04;;;;;;;7.88;3.60;;;19.40;99.90;;;;;;5053368;28;20213;-57
2022/09/07 03:59:30;;;;;;;5.32;3.67;;;19.30;99.90;;;;;;5053309;28;20225;-57
2022/09/07 04:01:57;;;;;;;6.00;3.40;;;19.20;99.90;;;;;;5053260;28;20209;-57
2022/09/07 04:04:24;;;;;;;8.05;2.83;;;19.00;99.90;;;;;;5053958;28;20209;-57
2022/09/07 04:06:50;;;;;;;7.07;3.65;;;18.90;99.90;;;;;;5053471;28;20271;-57
2022/09/07 04:09:18;;;;;;;6.82;3.60;;;18.70;99.90;;;;;;5053426;28;20692;-57
2022/09/07 04:11:45;;;;;;;9.00;3.25;;;18.60;99.90;;;;;;5053255;28;20226;-58
2022/09/07 04:14:12;;;;;;;6.03;3.50;;;18.60;99.90;;;;;;5053182;28;20697;-57
2022/09/07 04:16:39;;;;;;;5.72;3.42;;;18.60;99.90;;;;;;5053138;28;20566;-58
2022/09/07 04:19:06;;;;;;;4.05;3.47;;;18.60;99.90;;;;;;5053382;28;20225;-57
2022/09/07 04:21:33;;;;;;;8.38;5.00;;;18.60;99.90;;;;;;5053260;28;20233;-56
2022/09/07 04:24:00;;;;;;;5.18;3.28;;;18.70;99.90;;;;;;5053253;28;20653;-56
2022/09/07 04:26:30;;;;;;;4.50;3.25;;;18.70;99.90;;;;;;5053140;28;20208;-58
2022/09/07 04:28:58;;;;;;;4.97;3.13;;;18.70;99.90;;;;;;5053112;28;20222;-56
2022/09/07 04:31:25;;;;;;;3.70;3.10;;;18.70;99.90;;;;;;5052650;28;20226;-56
2022/09/07 04:33:52;;;;;;;7.63;3.00;;;18.70;99.90;;;;;;5053008;28;20217;-58
2022/09/07 04:36:20;;;;;;;7.88;3.47;;;18.60;99.90;;;;;;5052821;28;20206;-56
2022/09/07 04:38:47;;;;;;;9.25;3.25;;;18.60;99.90;;;;;;5052765;28;20209;-56
2022/09/07 04:41:16;;;;;;;4.43;3.35;;;18.60;99.90;;;;;;5052487;28;20229;-56
2022/09/07 04:43:45;;;;;;;5.30;3.60;;;18.70;99.90;;;;;;5052629;28;20209;-56
2022/09/07 04:46:18;;;;;;;5.75;3.33;;;18.60;99.90;;;;;;5053120;28;20209;-58
2022/09/07 04:48:48;;;;;;;5.82;3.15;;;18.60;99.90;;;;;;5052812;28;20209;-56
2022/09/07 04:51:15;;;;;;;5.80;3.10;;;18.60;99.90;;;;;;5052534;28;20261;-57
2022/09/07 04:53:42;;;;;;;6.13;2.83;;;18.60;99.90;;;;;;5053006;28;20267;-56
2022/09/07 04:56:08;;;;;;;5.85;2.85;;;18.60;99.90;;;;;;5052430;28;20205;-56
2022/09/07 04:58:35;;;;;;;7.35;2.60;;;18.70;99.90;;;;;;5052429;28;20202;-57
2022/09/07 05:01:05;;;;;;;5.28;3.00;;;18.60;99.90;;;;;;5052376;28;20237;-57
2022/09/07 05:03:35;;;;;;;5.78;3.10;;;18.60;99.90;;;;;;5052414;28;20209;-59
2022/09/07 05:06:02;;;;;;;7.97;3.47;;;18.50;99.90;;;;;;5052305;28;20210;-56
2022/09/07 05:08:29;;;;;;;8.48;2.72;;;18.40;99.90;;;;;;5051642;28;20220;-57
2022/09/07 05:10:57;;;;;;;4.68;2.97;;;18.40;99.90;;;;;;5052328;28;20226;-56
2022/09/07 05:13:24;;;;;;;5.05;3.42;;;18.40;99.90;;;;;;5052121;28;20685;-56
2022/09/07 05:15:51;;;;;;;7.95;3.55;;;18.30;99.90;;;;;;5052447;28;20662;-57
2022/09/07 05:18:20;;;;;;;4.68;3.28;;;18.20;99.90;;;;;;5052583;28;20212;-56
2022/09/07 05:20:46;;;;;;;5.03;3.22;;;18.10;99.90;;;;;;5052205;28;20386;-57
2022/09/07 05:23:13;;;;;;;6.53;2.60;;;18.10;99.90;;;;;;5051884;28;20206;-57
2022/09/07 05:25:43;;;;;;;4.75;2.83;;;18.10;99.90;;;;;;5052347;28;20292;-56
2022/09/07 05:28:10;;;;;;;4.25;2.53;;;18.20;99.90;;;;;;5052477;28;20206;-56
2022/09/07 05:30:37;;;;;;;5.40;2.50;;;18.30;99.90;;;;;;5052146;28;20229;-59
2022/09/07 05:33:04;;;;;;;6.10;2.88;;;18.40;99.90;;;;;;5051830;28;20208;-56
2022/09/07 05:35:32;;;;;;;4.28;2.70;;;18.60;99.90;;;;;;5051869;28;20573;-56
2022/09/07 05:37:59;;;;;;;5.75;2.60;;;18.70;99.90;;;;;;5052025;28;20209;-56
2022/09/07 05:40:25;;;;;;;4.97;2.60;;;18.70;99.90;;;;;;5052339;28;20229;-57
2022/09/07 05:42:52;;;;;;;3.08;2.63;;;18.90;99.90;;;;;;5052060;28;20236;-57
2022/09/07 05:45:19;;;;;;;4.07;2.78;;;18.90;99.90;;;;;;5052432;28;20206;-56
2022/09/07 05:47:49;;;;;;;5.28;2.70;;;19.50;99.90;;;;;;5052334;28;20216;-57
2022/09/07 05:50:17;;;;;;;5.88;2.22;;;20.60;99.90;;;;;;5052031;28;20226;-57
2022/09/07 05:52:46;;;;;;;2.47;2.17;;;21.80;99.90;;;;;;5052946;28;20237;-59
2022/09/07 05:55:13;;;;;;;6.72;2.55;;;23.00;99.90;;;;;;5052875;28;20228;-56
2022/09/07 05:57:40;;;;;;;5.95;2.38;;;24.20;99.90;;;;;;5052784;28;20244;-57
2022/09/07 06:00:08;;;;;;;4.25;1.88;;;25.30;99.90;;;;;;5052218;28;20287;-56
2022/09/07 06:02:34;;;;;;;4.55;2.22;;;26.30;99.90;;;;;;5051994;28;20214;-56
2022/09/07 06:05:01;;;;;;;6.50;2.15;;;27.20;99.90;;;;;;5051912;28;20221;-56
2022/09/07 06:07:28;;;;;;;3.72;1.77;;;28.20;99.90;;;;;;5051809;28;20212;-62
2022/09/07 06:09:56;;;;;;;5.25;2.22;;;29.00;99.90;;;;;;5051475;28;20226;-61
2022/09/07 06:12:22;;;;;;;5.63;2.05;;;29.40;99.90;;;;;;5051621;28;20210;-58
2022/09/07 06:14:49;;;;;;;5.30;2.28;;;29.80;99.90;;;;;;5051593;28;20206;-62
2022/09/07 06:17:16;;;;;;;4.53;2.15;;;30.20;99.90;;;;;;5051784;28;20210;-61
2022/09/07 06:19:43;;;;;;;7.18;1.90;;;30.70;99.90;;;;;;5052185;28;20229;-65
2022/09/07 06:22:09;;;;;;;5.10;2.00;;;31.00;99.30;;;;;;5055490;28;20201;-60
2022/09/07 06:24:36;;;;;;;6.95;2.10;;;31.30;97.80;;;;;;5055566;28;20220;-61
2022/09/07 06:27:04;;;;;;;4.25;1.75;;;31.40;97.20;;;;;;5036461;28;20206;-64
2022/09/07 06:29:31;;;;;;;4.93;1.90;;;31.70;96.30;;;;;;5073683;28;20703;-61
2022/09/07 06:31:58;;;;;;;4.40;2.03;;;32.00;95.50;;;;;;5074074;28;20205;-62
2022/09/07 06:34:25;;;;;;;3.45;1.80;;;32.50;94.20;;;;;;5064203;28;20620;-62
2022/09/07 06:36:52;;;;;;;3.95;2.08;;;32.80;93.40;;;;;;5055429;28;20221;-58
2022/09/07 06:39:18;;;;;;;5.38;1.95;;;33.20;92.10;;;;;;5055109;28;20267;-60
2022/09/07 06:41:45;;;;;;;5.47;1.77;;;33.60;91.30;;;;;;5054881;28;20226;-58
2022/09/07 06:44:13;;;;;;;5.50;2.28;;;34.00;90.00;;;;;;5055581;28;20206;-58
2022/09/07 06:46:40;;;;;;;4.20;1.90;;;34.40;87.00;;;;;;5054756;28;20212;-58
2022/09/07 06:49:06;;;;;;;7.18;1.75;;;34.70;84.40;;;;;;5055042;28;20210;-58
2022/09/07 06:51:33;;;;;;;5.13;2.10;;;35.00;83.10;;;;;;5054678;28;20267;-59
2022/09/07 06:54:00;;;;;;;4.55;1.95;;;35.40;80.60;;;;;;5054890;28;20572;-58
2022/09/07 06:56:28;;;;;;;7.03;2.10;;;35.70;78.70;;;;;;5054828;28;20303;-58
2022/09/07 06:58:55;;;;;;;3.78;1.80;;;35.80;77.90;;;;;;5054779;28;20247;-59
2022/09/07 07:01:24;;;;;;;4.28;1.83;;;36.20;76.60;;;;;;5054718;28;20237;-58
2022/09/07 07:03:52;;;;;;;3.80;1.70;;;36.80;74.70;;;;;;5054755;28;20209;-59
2022/09/07 07:06:20;;;;;;;6.40;1.85;;;37.10;73.10;;;;;;5054755;28;20197;-58
2022/09/07 07:08:47;;;;;;;5.93;1.90;;;36.90;71.60;;;;;;5054800;28;20212;-58
2022/09/07 07:11:15;;;;;;;4.25;2.13;;;35.90;73.40;;;;;;5054517;28;20225;-59
2022/09/07 07:13:44;;;;;;;5.38;1.80;;;34.60;76.50;;;;;;5054561;28;20220;-58
2022/09/07 07:16:12;;;;;;;6.57;2.08;;;33.60;80.00;;;;;;5054899;28;20625;-58
2022/09/07 07:18:40;;;;;;;4.50;2.00;;;32.90;82.00;;;;;;5054629;28;20213;-58
2022/09/07 07:21:09;;;;;;;3.20;2.00;;;32.30;84.30;;;;;;5054314;28;20233;-58
2022/09/07 07:23:36;;;;;;;8.05;2.13;;;31.80;86.30;;;;;;5054529;28;20216;-58
2022/09/07 07:26:03;;;;;;;3.83;1.90;;;31.30;88.20;;;;;;5054267;28;20695;-57
2022/09/07 07:28:30;;;;;;;6.00;2.17;;;30.90;89.90;;;;;;5054383;28;20209;-58
2022/09/07 07:30:58;;;;;;;5.35;1.90;;;30.80;90.10;;;;;;5054025;28;20305;-58
2022/09/07 07:33:29;;;;;;;5.85;2.10;;;31.10;89.10;;;;;;5054065;28;20216;-57
2022/09/07 07:36:07;;;;;;;5.13;1.70;;;31.20;89.50;;;;;;5054325;28;20213;-59
2022/09/07 07:38:34;;;;;;;8.75;2.20;;;32.00;86.70;;;;;;5054061;28;20212;-59
2022/09/07 07:41:01;;;;;;;6.97;2.13;;;33.20;82.80;;;;;;5054055;28;20287;-57
2022/09/07 07:43:28;;;;;;;6.18;2.03;;;34.40;78.80;;;;;;5054138;28;20205;-58
2022/09/07 07:45:56;;;;;;;5.22;1.85;;;35.00;76.40;;;;;;5054115;28;20580;-59
2022/09/07 07:48:22;;;;;;;6.15;1.70;;;36.00;74.30;;;;;;5053922;28;20209;-58
2022/09/07 07:50:57;;;;;;;6.07;2.00;;;36.90;71.00;;;;;;5054238;28;20218;-59
2022/09/07 07:53:25;;;;;;;3.63;1.83;;;37.80;68.60;;;;;;5053554;28;20205;-61
2022/09/07 07:55:52;;;;;;;6.93;2.20;;;38.60;66.00;;;;;;5053911;28;20213;-61
2022/09/07 07:58:19;;;;;;;6.97;2.15;;;39.10;63.40;;;;;;5053993;28;20209;-60
2022/09/07 08:00:46;;;;;;;5.55;1.88;;;39.20;62.20;;;;;;5054117;28;20595;-59
2022/09/07 08:03:13;;;;;;;7.03;2.30;;;39.00;62.80;;;;;;5053582;28;20662;-59
2022/09/07 08:05:39;;;;;;;6.63;2.30;;;38.40;62.90;;;;;;5053748;28;20245;-59
2022/09/07 08:08:06;;;;;;;9.30;2.15;;;37.40;64.80;;;;;;5054206;28;20201;-59
2022/09/07 08:10:35;;;;;;;7.88;2.38;;;36.30;67.20;;;;;;5053702;28;20720;-59
2022/09/07 08:13:02;;;;;;;5.63;2.30;;;35.10;70.20;;;;;;5053831;28;20210;-59
2022/09/07 08:15:29;;;;;;;10.52;2.58;;;33.90;73.60;;;;;;5054062;28;20206;-59
2022/09/07 08:17:56;;;;;;;5.05;2.00;;;32.80;77.00;;;;;;5053927;28;20240;-59
2022/09/07 08:20:23;;;;;;;5.22;2.10;;;31.90;79.90;;;;;;5053517;28;20237;-59
2022/09/07 08:22:52;;;;;;;7.55;2.35;;;31.10;82.70;;;;;;5053620;28;20672;-59
2022/09/07 08:25:19;;;;;;;6.70;2.28;;;30.60;85.30;;;;;;5054012;28;20213;-59
2022/09/07 08:27:47;;;;;;;7.78;2.28;;;30.10;87.40;;;;;;5053646;28;20771;-59
2022/09/07 08:30:13;;;;;;;6.82;2.05;;;29.80;89.70;;;;;;5053563;28;20222;-59
2022/09/07 08:32:40;;;;;;;6.90;2.40;;;29.50;90.70;;;;;;5053208;28;20213;-59
2022/09/07 08:35:08;;;;;;;5.28;2.10;;;29.20;91.00;;;;;;5053366;28;20214;-59
2022/09/07 08:37:34;;;;;;;5.63;1.90;;;29.00;91.50;;;;;;5053180;28;20206;-59
2022/09/07 08:40:01;;;;;;;6.10;2.17;;;28.70;91.90;;;;;;5053090;28;20226;-59
2022/09/07 08:42:45;;;;;;;6.95;2.03;;;28.50;92.80;;;;;;5052334;28;20210;-59
2022/09/07 08:45:17;;;;;;;7.22;2.45;;;28.30;93.00;;;;;;5052770;28;20206;-58
2022/09/07 08:47:47;;;;;;;6.38;2.22;;;28.20;93.50;;;;;;5053215;28;20205;-58
2022/09/07 08:50:19;;;;;;;10.48;2.13;;;28.10;93.60;;;;;;5052748;28;20230;-58
2022/09/07 08:52:50;;;;;;;8.43;2.30;;;28.00;94.00;;;;;;5052684;28;20214;-58
2022/09/07 08:55:25;;;;;;;5.68;2.20;;;27.90;94.10;;;;;;5052662;28;20204;-58
2022/09/07 08:58:00;;;;;;;7.60;2.60;;;27.80;94.40;;;;;;5052880;28;20220;-58
2022/09/07 09:00:30;;;;;;;8.43;2.40;;;27.60;94.80;;;;;;5052556;28;20228;-58
2022/09/07 09:02:58;;;;;;;8.65;2.40;;;27.40;95.60;;;;;;5052163;28;20663;-58
2022/09/07 09:05:31;;;;;;;9.50;2.63;;;27.20;96.10;;;;;;5052405;28;20747;-58
2022/09/07 09:08:25;;;;;;;8.10;2.67;;;27.30;96.60;;;;;;5052208;28;20202;-58
2022/09/07 09:11:01;;;;;;;6.20;2.22;;;27.30;97.20;;;;;;5052572;28;20229;-58
2022/09/07 09:13:41;;;;;;;7.20;2.20;;;27.50;97.10;;;;;;5052587;28;20688;-58
2022/09/07 09:16:15;;;;;;;9.65;2.30;;;27.60;97.10;;;;;;5052713;28;20212;-58
2022/09/07 09:18:58;;;;;;;8.48;2.33;;;27.60;96.90;;;;;;5053243;28;20211;-58
2022/09/07 09:21:26;;;;;;;9.18;2.58;;;27.70;97.00;;;;;;5053137;28;20234;-58
2022/09/07 09:23:59;;;;;;;7.93;2.20;;;27.80;96.90;;;;;;5052866;28;20247;-58
2022/09/07 09:26:27;;;;;;;10.20;2.30;;;27.90;96.80;;;;;;5052568;28;20209;-58
2022/09/07 09:28:54;;;;;;;7.20;2.40;;;27.90;96.60;;;;;;5052603;28;20212;-58
2022/09/07 09:31:25;;;;;;;7.25;2.70;;;28.00;96.70;;;;;;5052367;28;20264;-58
2022/09/07 09:34:09;;;;;;;10.13;2.67;;;27.90;96.90;;;;;;5051538;28;20209;-60
2022/09/07 09:36:41;;;;;;;4.55;2.25;;;27.90;96.70;;;;;;5051465;28;20255;-61
2022/09/07 09:39:26;;;;;;;8.55;2.20;;;27.90;97.00;;;;;;5051114;28;20680;-61
2022/09/07 09:41:54;;;;;;;6.63;2.20;;;27.90;97.20;;;;;;5050898;28;20225;-59
2022/09/07 09:44:22;;;;;;;7.70;2.30;;;28.00;96.70;;;;;;5050987;28;20263;-59
2022/09/07 09:46:53;;;;;;;6.07;2.58;;;28.10;96.80;;;;;;5050905;28;20292;-59
2022/09/07 09:49:23;;;;;;;7.97;2.70;;;28.20;96.30;;;;;;5051198;28;20206;-59
2022/09/07 09:51:55;;;;;;;7.07;2.85;;;28.20;96.70;;;;;;5051016;28;20206;-59
2022/09/07 09:54:25;;;;;;;5.78;2.30;;;28.30;96.80;;;;;;5051722;28;20194;-59
2022/09/07 09:56:52;;;;;;;7.50;2.72;;;28.40;96.30;;;;;;5055277;28;20251;-59
2022/09/07 09:59:22;;;;;;;9.95;2.40;;;28.50;96.10;;;;;;5055174;28;20209;-60
2022/09/07 10:01:51;;;;;;;6.72;2.30;;;28.60;96.10;;;;;;5054452;28;20316;-59
2022/09/07 10:04:20;;;;;;;8.02;2.17;;;28.60;95.90;;;;;;5054823;28;20205;-61
2022/09/07 10:06:50;;;;;;;5.13;2.28;;;28.70;95.60;;;;;;5055176;28;20630;-59
2022/09/07 10:09:20;;;;;;;8.63;2.25;;;28.70;95.70;;;;;;5055335;28;20689;-63
2022/09/07 10:11:49;;;;;;;8.27;2.53;;;28.60;95.90;;;;;;5054379;28;20225;-58
2022/09/07 10:14:19;;;;;;;6.32;2.33;;;28.50;95.90;;;;;;5054479;28;20263;-58
2022/09/07 10:16:46;;;;;;;8.60;2.50;;;28.40;96.00;;;;;;5054951;28;20201;-59
2022/09/07 10:19:29;;;;;;;9.10;2.20;;;28.30;96.30;;;;;;5054692;28;20201;-58
2022/09/07 10:21:57;;;;;;;4.50;2.17;;;28.30;96.30;;;;;;5088345;22;20225;-56
2022/09/07 10:24:26;;;;;;;6.85;2.17;;;28.30;96.10;;;;;;5071681;28;20332;-57
2022/09/07 10:26:53;;;;;;;10.57;3.28;;;28.30;96.10;;;;;;5074293;28;20205;-56
2022/09/07 10:29:28;;;;;;;7.70;2.60;;;28.30;96.30;;;;;;5073777;28;20212;-57
2022/09/07 10:32:18;;;;;;;5.57;2.40;;;28.50;96.10;;;;;;5074079;28;20315;-56
2022/09/07 10:34:56;;;;;;;5.30;1.80;;;28.60;95.40;;;;;;5073945;28;20319;-57
2022/09/07 10:37:34;;;;;;;8.20;1.73;;;28.60;95.50;;;;;;5074034;28;20208;-56
2022/09/07 10:40:16;;;;;;;14.15;2.30;;;28.80;95.00;;;;;;5073308;28;20227;-57
2022/09/07 10:42:50;;;;;;;11.27;2.47;;;28.80;95.00;;;;;;5073397;28;20289;-56
2022/09/07 10:45:20;;;;;;;12.20;2.20;;;28.90;94.90;;;;;;5073817;28;20211;-60
2022/09/07 10:47:59;;;;;;;7.10;1.92;;;29.10;94.70;;;;;;5074393;28;20201;-55
2022/09/07 10:50:31;;;;;;;6.97;2.42;;;29.20;94.60;;;;;;5073254;28;20236;-58
2022/09/07 10:53:12;;;;;;;5.10;2.17;;;29.40;93.80;;;;;;5073394;28;20236;-58
2022/09/07 10:55:42;;;;;;;6.35;2.30;;;29.60;93.00;;;;;;5073654;28;20254;-56
2022/09/07 10:58:25;;;;;;;7.35;2.70;;;29.80;93.00;;;;;;5073409;28;20209;-56
2022/09/07 11:01:07;;;;;;;6.45;2.20;;;29.90;93.00;;;;;;5073345;28;20225;-57
2022/09/07 11:03:57;;;;;;;5.25;2.10;;;29.90;92.60;;;;;;5072996;28;20204;-58
2022/09/07 11:06:32;;;;;;;5.85;1.85;;;29.90;92.50;;;;;;5072841;28;20633;-57
2022/09/07 11:09:37;;;;;;;5.70;2.10;;;30.00;91.80;;;;;;5073085;28;20273;-56
2022/09/07 11:12:09;;;;;;;4.00;1.60;;;29.80;91.80;;;;;;5072473;28;20227;-56
2022/09/07 11:14:40;;;;;;;6.82;2.67;;;29.50;92.30;;;;;;5073165;28;20209;-59
2022/09/07 11:17:14;;;;;;;8.77;2.42;;;29.40;92.50;;;;;;5072905;28;20212;-55
2022/09/07 11:19:46;;;;;;;7.03;2.20;;;29.40;92.50;;;;;;5073197;28;20307;-56
2022/09/07 11:22:23;;;;;;;7.70;2.50;;;29.40;92.20;;;;;;5072855;28;20234;-57
2022/09/07 11:24:55;;;;;;;8.23;2.17;;;29.40;92.40;;;;;;5072756;28;20262;-58
2022/09/07 11:27:27;;;;;;;5.45;2.05;;;29.60;92.30;;;;;;5072609;28;20213;-56
2022/09/07 11:30:02;;;;;;;3.88;1.80;;;29.90;91.80;;;;;;5072628;28;20210;-55
2022/09/07 11:32:33;;;;;;;5.88;2.13;;;30.40;91.10;;;;;;5072821;28;20219;-57
2022/09/07 11:35:05;;;;;;;8.55;2.35;;;30.70;90.40;;;;;;5072907;28;20205;-55
2022/09/07 11:37:39;;;;;;;5.57;2.00;;;30.80;90.20;;;;;;5072815;28;20208;-55
2022/09/07 11:40:13;;;;;;;6.05;2.10;;;30.80;90.20;;;;;;5072386;28;20225;-55
2022/09/07 11:42:48;;;;;;;6.20;2.28;;;30.70;90.20;;;;;;5071927;28;20236;-55
2022/09/07 11:45:19;;;;;;;8.23;2.20;;;30.50;90.80;;;;;;5072420;28;20204;-60
2022/09/07 11:47:49;;;;;;;7.20;2.10;;;30.80;90.20;;;;;;5072545;28;20257;-55
2022/09/07 11:50:18;;;;;;;6.00;2.25;;;31.30;88.50;;;;;;5072520;28;20225;-55
2022/09/07 11:52:49;;;;;;;7.78;1.90;;;31.70;86.80;;;;;;5072059;28;20208;-55
2022/09/07 11:55:24;;;;;;;6.25;1.85;;;31.90;84.90;;;;;;5072785;28;20204;-57
2022/09/07 11:58:07;;;;;;;9.27;2.53;;;32.20;84.00;;;;;;5072260;28;20214;-57
2022/09/07 12:00:45;;;;;;;9.35;2.28;;;32.20;82.50;;;;;;5072288;28;20236;-58
2022/09/07 12:03:37;;;;;;;5.68;1.77;;;32.20;82.10;;;;;;5071560;28;20228;-59
2022/09/07 12:06:46;;;;;;;6.72;1.65;;;31.90;80.90;;;;;;5072424;28;20317;-59
2022/09/07 12:09:32;;;;;;;4.00;1.60;;;31.40;82.30;;;;;;5022992;28;20212;-57
2022/09/07 12:12:21;;;;;;;5.05;1.80;;;31.40;83.30;;;;;;5071804;28;20232;-58
2022/09/07 12:15:01;;;;;;;7.43;1.80;;;31.40;83.80;;;;;;5072489;28;20209;-63
2022/09/07 12:17:52;;;;;;;3.95;1.80;;;31.50;83.60;;;;;;5071969;28;20628;-56
2022/09/07 12:20:21;;;;;;;6.60;2.20;;;31.40;83.70;;;;;;5071841;28;20232;-56
2022/09/07 12:22:59;;;;;;;5.15;1.92;;;31.50;83.20;;;;;;5071776;28;20596;-55
2022/09/07 12:25:28;;;;;;;5.78;1.80;;;31.70;82.40;;;;;;5072197;28;20216;-57
2022/09/07 12:27:55;;;;;;;8.93;1.75;;;31.90;81.60;;;;;;5072042;28;20209;-56
2022/09/07 12:30:57;;;;;;;6.28;2.10;;;31.90;80.40;;;;;;5071185;28;20235;-56
2022/09/07 12:33:32;;;;;;;6.85;2.60;;;31.60;81.00;;;;;;5071435;28;20204;-57
2022/09/07 12:35:59;;;;;;;5.70;1.92;;;31.40;80.70;;;;;;5071550;28;20217;-56
2022/09/07 12:39:06;;;;;;;4.60;1.90;;;31.10;81.20;;;;;;5071698;28;20209;-56
2022/09/07 12:41:48;;;;;;;5.80;2.00;;;30.90;81.30;;;;;;5071399;28;20286;-56
2022/09/07 12:44:20;;;;;;;5.50;1.35;;;30.80;80.90;;;;;;5071221;28;20201;-55
2022/09/07 12:46:58;;;;;;;3.88;1.23;;;30.60;80.70;;;;;;5071720;28;20220;-57
2022/09/07 12:49:49;;;;;;;4.32;1.50;;;30.50;80.60;;;;;;5071549;28;20208;-57
2022/09/07 12:52:34;;;;;;;6.07;1.80;;;30.50;80.50;;;;;;5070955;28;20574;-56
2022/09/07 12:55:09;;;;;;;5.35;1.75;;;30.60;80.40;;;;;;5071270;28;20258;-56
2022/09/07 12:57:43;;;;;;;6.85;1.80;;;30.60;80.10;;;;;;5071144;28;20291;-56
2022/09/07 13:00:33;;;;;;;4.57;1.45;;;30.40;80.60;;;;;;5071359;28;20282;-57
2022/09/07 13:03:29;;;;;;;4.30;1.50;;;30.20;80.40;;;;;;5070640;28;20825;-57
2022/09/07 13:06:02;;;;;;;5.25;1.50;;;30.10;80.30;;;;;;5053933;28;20584;-55